createdAt,value
2018-07-13T00:00:31.902Z,14.70
2018-07-13T00:03:00.211Z,14.60
2018-07-13T00:05:28.532Z,14.60
2018-07-13T00:07:56.831Z,14.50
2018-07-13T00:10:25.154Z,14.50
2018-07-13T00:12:53.454Z,14.50
2018-07-13T00:15:21.778Z,14.50
2018-07-13T00:17:50.072Z,14.50
2018-07-13T00:20:18.383Z,14.50
2018-07-13T00:22:46.687Z,14.40
2018-07-13T00:25:14.238Z,14.40
2018-07-13T00:27:42.532Z,14.30
2018-07-13T00:30:10.849Z,14.30
2018-07-13T00:32:39.153Z,14.30
2018-07-13T00:35:07.466Z,14.30
2018-07-13T00:37:35.765Z,14.30
2018-07-13T00:40:03.324Z,14.30
2018-07-13T00:42:31.622Z,14.30
2018-07-13T00:44:59.934Z,14.30
2018-07-13T00:47:28.231Z,14.30
2018-07-13T00:49:56.549Z,14.30
2018-07-13T00:52:24.876Z,14.20
2018-07-13T00:54:53.183Z,14.20
2018-07-13T00:57:21.482Z,14.10
2018-07-13T00:59:49.809Z,14.10
2018-07-13T01:02:18.105Z,14.10
2018-07-13T01:04:45.635Z,14.00
2018-07-13T01:07:13.951Z,14.10
2018-07-13T01:09:42.246Z,14.00
2018-07-13T01:12:10.561Z,14.00
2018-07-13T01:14:38.854Z,14.00
2018-07-13T01:17:07.170Z,14.00
2018-07-13T01:19:35.474Z,13.90
2018-07-13T01:22:03.794Z,13.90
2018-07-13T01:24:31.326Z,13.80
2018-07-13T01:26:59.645Z,13.80
2018-07-13T01:29:27.938Z,13.80
2018-07-13T01:31:56.258Z,13.80
2018-07-13T01:34:24.549Z,13.80
2018-07-13T01:36:52.869Z,13.70
2018-07-13T01:39:21.165Z,13.70
2018-07-13T01:41:49.482Z,13.70
2018-07-13T01:44:17.787Z,13.70
2018-07-13T01:46:46.106Z,13.70
2018-07-13T01:49:14.409Z,13.70
2018-07-13T01:51:42.757Z,13.60
2018-07-13T01:54:11.052Z,13.60
2018-07-13T01:56:39.379Z,13.60
2018-07-13T01:59:07.681Z,13.60
2018-07-13T02:01:36.002Z,13.60
2018-07-13T02:04:04.309Z,13.50
2018-07-13T02:06:32.630Z,13.50
2018-07-13T02:09:00.929Z,13.50
2018-07-13T02:11:29.246Z,13.50
2018-07-13T02:13:57.551Z,13.40
2018-07-13T02:16:25.885Z,13.40
2018-07-13T02:18:54.182Z,13.40
2018-07-13T02:21:22.478Z,13.40
2018-07-13T02:23:50.793Z,13.30
2018-07-13T02:26:19.093Z,13.30
2018-07-13T02:28:47.409Z,13.30
2018-07-13T02:31:15.706Z,13.30
2018-07-13T02:33:44.032Z,13.30
2018-07-13T02:36:12.343Z,13.20
2018-07-13T02:38:40.669Z,13.20
2018-07-13T02:41:08.970Z,13.20
2018-07-13T02:43:37.298Z,13.20
2018-07-13T02:46:05.599Z,13.10
2018-07-13T02:48:33.927Z,13.00
2018-07-13T02:51:02.226Z,13.00
2018-07-13T02:53:30.545Z,13.00
2018-07-13T02:55:58.839Z,13.00
2018-07-13T02:58:27.166Z,13.00
2018-07-13T03:00:55.469Z,13.00
2018-07-13T03:03:23.786Z,12.90
2018-07-13T03:05:52.081Z,12.90
2018-07-13T03:08:20.403Z,12.90
2018-07-13T03:10:48.699Z,12.90
2018-07-13T03:13:17.029Z,12.90
2018-07-13T03:15:45.325Z,12.90
2018-07-13T03:18:13.642Z,12.90
2018-07-13T03:20:41.937Z,12.80
2018-07-13T03:23:10.255Z,12.80
2018-07-13T03:25:38.550Z,12.80
2018-07-13T03:28:06.862Z,12.80
2018-07-13T03:30:35.166Z,12.80
2018-07-13T03:33:03.478Z,12.80
2018-07-13T03:35:31.786Z,12.80
2018-07-13T03:37:59.350Z,12.70
2018-07-13T03:40:27.653Z,12.70
2018-07-13T03:42:55.974Z,12.80
2018-07-13T03:45:24.278Z,12.80
2018-07-13T03:47:52.597Z,12.70
2018-07-13T03:50:20.889Z,12.80
2018-07-13T03:52:49.222Z,12.80
2018-07-13T03:55:17.518Z,12.80
2018-07-13T03:57:45.814Z,12.80
2018-07-13T04:00:14.135Z,12.80
2018-07-13T04:02:42.434Z,12.80
2018-07-13T04:05:10.759Z,12.90
2018-07-13T04:07:39.066Z,12.90
2018-07-13T04:10:07.386Z,12.90
2018-07-13T04:12:35.678Z,13.00
2018-07-13T04:15:03.995Z,13.10
2018-07-13T04:17:32.296Z,13.20
2018-07-13T04:20:00.614Z,13.50
2018-07-13T04:22:28.910Z,13.80
2018-07-13T04:24:57.230Z,14.00
2018-07-13T04:27:25.522Z,14.10
2018-07-13T04:29:53.829Z,14.10
2018-07-13T04:32:22.129Z,14.10
2018-07-13T04:34:50.443Z,14.00
2018-07-13T04:37:18.738Z,14.00
2018-07-13T04:39:47.049Z,14.00
2018-07-13T04:42:15.342Z,14.00
2018-07-13T04:44:43.656Z,14.10
2018-07-13T04:47:11.954Z,14.20
2018-07-13T04:49:40.270Z,14.70
2018-07-13T04:52:08.558Z,15.30
2018-07-13T04:54:36.873Z,15.70
2018-07-13T04:57:05.159Z,16.20
2018-07-13T04:59:33.470Z,16.50
2018-07-13T05:02:01.758Z,16.80
2018-07-13T05:04:30.071Z,17.10
2018-07-13T05:06:58.358Z,17.40
2018-07-13T05:09:26.674Z,17.80
2018-07-13T05:11:54.966Z,18.00
2018-07-13T05:14:23.270Z,18.30
2018-07-13T05:16:51.553Z,18.50
2018-07-13T05:19:19.863Z,18.60
2018-07-13T05:21:48.157Z,18.60
2018-07-13T05:24:16.482Z,18.40
2018-07-13T05:26:44.766Z,18.10
2018-07-13T05:29:13.057Z,17.80
2018-07-13T05:31:41.370Z,17.70
2018-07-13T05:34:09.672Z,17.60
2018-07-13T05:36:37.992Z,17.60
2018-07-13T05:39:06.282Z,17.60
2018-07-13T05:41:34.594Z,17.60
2018-07-13T05:44:02.887Z,17.60
2018-07-13T05:46:31.201Z,17.60
2018-07-13T05:48:58.727Z,17.60
2018-07-13T05:51:27.046Z,17.80
2018-07-13T05:53:54.570Z,17.80
2018-07-13T05:56:22.903Z,17.90
2018-07-13T05:58:50.422Z,17.90
2018-07-13T06:01:18.736Z,17.90
2018-07-13T06:03:47.060Z,17.90
2018-07-13T06:06:15.358Z,17.90
2018-07-13T06:08:43.645Z,17.90
2018-07-13T06:11:11.958Z,17.80
2018-07-13T06:13:40.254Z,17.70
2018-07-13T06:16:08.574Z,17.70
2018-07-13T06:18:36.878Z,17.70
2018-07-13T06:21:05.206Z,17.80
2018-07-13T06:23:33.514Z,17.90
2018-07-13T06:26:01.822Z,18.10
2018-07-13T06:28:30.446Z,18.40
2018-07-13T06:30:58.758Z,18.60
2018-07-13T06:33:27.058Z,18.80
2018-07-13T06:35:56.489Z,19.10
2018-07-13T06:38:24.010Z,19.10
2018-07-13T06:40:52.326Z,19.50
2018-07-13T06:43:20.614Z,19.80
2018-07-13T06:45:48.926Z,20.00
2018-07-13T06:48:17.229Z,20.20
2018-07-13T06:50:45.557Z,20.40
2018-07-13T06:53:13.858Z,20.50
2018-07-13T06:55:42.179Z,20.60
2018-07-13T06:58:22.398Z,20.60
2018-07-13T07:00:50.718Z,20.60
2018-07-13T07:03:19.015Z,20.80
2018-07-13T07:05:47.311Z,20.80
2018-07-13T07:08:15.622Z,21.00
2018-07-13T07:10:43.940Z,21.10
2018-07-13T07:13:12.254Z,21.30
2018-07-13T07:15:40.555Z,21.50
2018-07-13T07:18:08.870Z,21.90
2018-07-13T07:20:37.182Z,22.20
2018-07-13T07:23:05.498Z,22.30
2018-07-13T07:25:33.795Z,22.40
2018-07-13T07:28:02.118Z,22.60
2018-07-13T07:30:30.422Z,22.70
2018-07-13T07:32:58.739Z,22.80
2018-07-13T07:35:27.030Z,22.90
2018-07-13T07:37:55.347Z,23.10
2018-07-13T07:40:23.647Z,23.30
2018-07-13T07:42:51.971Z,23.50
2018-07-13T07:45:20.270Z,23.50
2018-07-13T07:47:48.587Z,23.40
2018-07-13T07:50:16.919Z,23.60
2018-07-13T07:52:45.243Z,23.70
2018-07-13T07:55:13.568Z,23.60
2018-07-13T07:57:41.927Z,23.70
2018-07-13T08:00:10.230Z,23.80
2018-07-13T08:02:38.552Z,24.00
2018-07-13T08:05:06.858Z,24.00
2018-07-13T08:07:35.180Z,24.10
2018-07-13T08:10:03.495Z,24.10
2018-07-13T08:12:31.818Z,24.20
2018-07-13T08:14:59.354Z,24.20
2018-07-13T08:17:27.670Z,24.50
2018-07-13T08:19:55.993Z,24.50
2018-07-13T08:22:24.307Z,24.60
2018-07-13T08:24:52.611Z,24.90
2018-07-13T08:27:20.906Z,25.00
2018-07-13T08:29:49.230Z,25.10
2018-07-13T08:32:17.530Z,25.30
2018-07-13T08:34:45.851Z,25.50
2018-07-13T08:37:14.142Z,25.70
2018-07-13T08:39:42.463Z,25.80
2018-07-13T08:42:10.767Z,26.00
2018-07-13T08:44:39.097Z,26.40
2018-07-13T08:47:07.391Z,26.70
2018-07-13T08:49:35.710Z,27.00
2018-07-13T08:52:04.010Z,27.10
2018-07-13T08:54:32.329Z,27.30
2018-07-13T08:57:00.627Z,27.20
2018-07-13T08:59:28.942Z,27.20
2018-07-13T09:01:57.238Z,27.10
2018-07-13T09:04:25.611Z,27.20
2018-07-13T09:06:53.121Z,27.20
2018-07-13T09:09:21.434Z,27.00
2018-07-13T09:11:49.791Z,27.00
2018-07-13T09:14:18.085Z,27.20
2018-07-13T09:16:45.616Z,27.10
2018-07-13T09:19:13.927Z,28.00
2018-07-13T09:21:42.222Z,28.30
2018-07-13T09:24:10.578Z,28.00
2018-07-13T09:26:38.857Z,27.90
2018-07-13T09:29:07.187Z,27.50
2018-07-13T09:31:35.474Z,27.20
2018-07-13T09:34:03.784Z,27.10
2018-07-13T09:36:32.079Z,27.00
2018-07-13T09:39:00.403Z,26.90
2018-07-13T09:41:28.702Z,26.80
2018-07-13T09:43:57.021Z,26.90
2018-07-13T09:46:25.319Z,26.90
2018-07-13T09:48:54.518Z,26.80
2018-07-13T09:51:22.811Z,26.80
2018-07-13T09:53:51.193Z,27.00
2018-07-13T09:56:19.444Z,27.20
2018-07-13T09:58:47.744Z,27.20
2018-07-13T10:01:16.057Z,26.90
2018-07-13T10:03:44.346Z,26.70
2018-07-13T10:06:12.675Z,26.40
2018-07-13T10:08:40.969Z,26.20
2018-07-13T10:11:09.298Z,26.00
2018-07-13T10:13:37.602Z,25.80
2018-07-13T10:16:05.927Z,25.80
2018-07-13T10:18:34.235Z,25.70
2018-07-13T10:21:02.548Z,25.50
2018-07-13T10:23:30.847Z,25.30
2018-07-13T10:25:59.167Z,25.30
2018-07-13T10:28:26.695Z,25.30
2018-07-13T10:30:55.017Z,25.40
2018-07-13T10:33:22.562Z,25.40
2018-07-13T10:35:50.874Z,25.70
2018-07-13T10:38:19.168Z,25.90
2018-07-13T10:40:47.487Z,26.20
2018-07-13T10:43:15.796Z,26.40
2018-07-13T10:45:44.128Z,26.70
2018-07-13T10:48:12.447Z,27.00
2018-07-13T10:50:40.771Z,27.30
2018-07-13T10:53:09.076Z,27.60
2018-07-13T10:55:37.395Z,27.90
2018-07-13T10:58:05.695Z,28.00
2018-07-13T11:00:34.020Z,28.00
2018-07-13T11:03:02.328Z,27.80
2018-07-13T11:05:30.647Z,27.50
2018-07-13T11:07:58.214Z,27.50
2018-07-13T11:10:26.509Z,26.80
2018-07-13T11:12:54.055Z,26.80
2018-07-13T11:15:22.389Z,26.40
2018-07-13T11:17:50.691Z,26.50
2018-07-13T11:20:18.735Z,26.40
2018-07-13T11:22:47.038Z,26.20
2018-07-13T11:25:15.362Z,26.10
2018-07-13T11:27:43.666Z,26.20
2018-07-13T11:30:12.043Z,26.40
2018-07-13T11:32:40.342Z,26.90
2018-07-13T11:35:08.642Z,27.50
2018-07-13T11:37:36.979Z,28.00
2018-07-13T11:40:05.289Z,28.20
2018-07-13T11:42:33.610Z,28.70
2018-07-13T11:45:01.918Z,29.10
2018-07-13T11:47:30.234Z,29.20
2018-07-13T11:49:58.583Z,29.10
2018-07-13T11:52:26.910Z,29.30
2018-07-13T11:54:55.206Z,29.60
2018-07-13T11:57:23.526Z,30.10
2018-07-13T11:59:51.053Z,30.00
2018-07-13T12:02:19.376Z,30.60
2018-07-13T12:04:47.667Z,30.30
2018-07-13T12:07:15.993Z,30.20
2018-07-13T12:09:44.294Z,30.30
2018-07-13T12:12:12.618Z,30.20
2018-07-13T12:14:40.919Z,30.10
2018-07-13T12:17:09.227Z,29.90
2018-07-13T12:19:37.527Z,29.20
2018-07-13T12:22:05.889Z,28.70
2018-07-13T12:24:34.187Z,28.60
2018-07-13T12:27:02.569Z,28.50
2018-07-13T12:29:30.827Z,28.90
2018-07-13T12:31:59.143Z,29.30
2018-07-13T12:34:27.442Z,29.30
2018-07-13T12:36:55.001Z,29.30
2018-07-13T12:39:22.522Z,29.20
2018-07-13T12:41:50.846Z,28.60
2018-07-13T12:44:19.139Z,28.10
2018-07-13T12:46:47.436Z,27.70
2018-07-13T12:49:15.748Z,27.40
2018-07-13T12:51:44.037Z,27.10
2018-07-13T12:54:12.488Z,27.30
2018-07-13T12:56:40.671Z,27.70
2018-07-13T12:59:08.987Z,28.10
2018-07-13T13:01:37.274Z,28.70
2018-07-13T13:04:05.586Z,29.20
2018-07-13T13:06:33.878Z,29.50
2018-07-13T13:09:02.187Z,29.90
2018-07-13T13:11:30.481Z,30.30
2018-07-13T13:13:58.790Z,30.20
2018-07-13T13:16:27.094Z,30.20
2018-07-13T13:18:54.643Z,30.10
2018-07-13T13:21:22.934Z,30.10
2018-07-13T13:23:50.484Z,30.10
2018-07-13T13:26:18.826Z,30.20
2018-07-13T13:28:47.135Z,29.70
2018-07-13T13:31:15.495Z,29.60
2018-07-13T13:33:43.836Z,30.10
2018-07-13T13:36:12.130Z,30.60
2018-07-13T13:38:39.674Z,30.60
2018-07-13T13:41:07.966Z,30.80
2018-07-13T13:43:36.274Z,30.90
2018-07-13T13:46:04.566Z,30.40
2018-07-13T13:48:32.880Z,30.10
2018-07-13T13:51:01.175Z,30.20
2018-07-13T13:53:29.500Z,30.00
2018-07-13T13:55:57.807Z,29.70
2018-07-13T13:58:26.139Z,29.60
2018-07-13T14:00:54.431Z,29.30
2018-07-13T14:03:22.727Z,29.00
2018-07-13T14:05:51.039Z,28.80
2018-07-13T14:08:19.330Z,28.60
2018-07-13T14:10:47.646Z,28.50
2018-07-13T14:13:15.937Z,28.50
2018-07-13T14:15:44.254Z,28.50
2018-07-13T14:18:11.778Z,28.50
2018-07-13T14:20:40.090Z,28.90
2018-07-13T14:23:08.395Z,29.00
2018-07-13T14:25:36.710Z,28.90
2018-07-13T14:28:05.000Z,28.60
2018-07-13T14:30:33.316Z,28.40
2018-07-13T14:33:01.614Z,28.10
2018-07-13T14:35:29.929Z,27.90
2018-07-13T14:37:58.222Z,27.80
2018-07-13T14:40:26.541Z,27.70
2018-07-13T14:42:54.830Z,27.50
2018-07-13T14:45:23.146Z,27.20
2018-07-13T14:47:51.430Z,26.90
2018-07-13T14:50:19.737Z,26.70
2018-07-13T14:52:48.031Z,26.50
2018-07-13T14:55:16.343Z,26.10
2018-07-13T14:57:44.637Z,25.60
2018-07-13T15:00:12.947Z,25.20
2018-07-13T15:02:41.238Z,25.00
2018-07-13T15:05:09.639Z,24.80
2018-07-13T15:07:37.119Z,24.70
2018-07-13T15:10:05.464Z,24.30
2018-07-13T15:12:33.758Z,24.10
2018-07-13T15:15:02.079Z,24.00
2018-07-13T15:17:30.403Z,23.90
2018-07-13T15:19:58.721Z,24.00
2018-07-13T15:22:27.032Z,24.00
2018-07-13T15:24:55.352Z,24.10
2018-07-13T15:27:23.652Z,24.10
2018-07-13T15:29:51.967Z,24.20
2018-07-13T15:32:20.266Z,24.40
2018-07-13T15:34:48.607Z,24.40
2018-07-13T15:37:16.942Z,24.50
2018-07-13T15:39:44.450Z,24.50
2018-07-13T15:42:12.765Z,25.00
2018-07-13T15:44:41.058Z,25.30
2018-07-13T15:47:09.374Z,25.50
2018-07-13T15:49:37.669Z,25.70
2018-07-13T15:52:05.990Z,25.90
2018-07-13T15:54:34.278Z,26.40
2018-07-13T15:57:02.586Z,26.90
2018-07-13T15:59:30.878Z,27.70
2018-07-13T16:01:59.192Z,28.30
2018-07-13T16:04:27.488Z,28.80
2018-07-13T16:06:55.932Z,29.00
2018-07-13T16:09:24.229Z,28.90
2018-07-13T16:11:52.538Z,28.90
2018-07-13T16:14:20.829Z,28.70
2018-07-13T16:16:48.370Z,28.70
2018-07-13T16:19:16.658Z,28.50
2018-07-13T16:21:44.970Z,28.40
2018-07-13T16:24:13.262Z,28.30
2018-07-13T16:26:41.578Z,28.20
2018-07-13T16:29:09.891Z,28.30
2018-07-13T16:31:38.210Z,28.50
2018-07-13T16:34:06.570Z,28.60
2018-07-13T16:36:34.830Z,28.70
2018-07-13T16:39:03.120Z,28.70
2018-07-13T16:41:31.435Z,28.70
2018-07-13T16:43:59.725Z,28.80
2018-07-13T16:46:28.038Z,29.10
2018-07-13T16:48:56.340Z,29.40
2018-07-13T16:51:24.654Z,29.70
2018-07-13T16:53:52.949Z,29.90
2018-07-13T16:56:20.567Z,29.90
2018-07-13T16:58:48.810Z,30.00
2018-07-13T17:01:17.199Z,30.20
2018-07-13T17:03:44.746Z,30.20
2018-07-13T17:06:13.033Z,30.20
2018-07-13T17:08:41.342Z,30.10
2018-07-13T17:11:09.635Z,30.50
2018-07-13T17:13:37.950Z,30.80
2018-07-13T17:16:05.476Z,30.80
2018-07-13T17:18:33.786Z,31.70
2018-07-13T17:21:02.076Z,32.40
2018-07-13T17:23:30.395Z,33.00
2018-07-13T17:25:58.699Z,33.70
2018-07-13T17:28:27.032Z,34.40
2018-07-13T17:30:55.341Z,34.90
2018-07-13T17:33:22.890Z,34.80
2018-07-13T17:35:51.182Z,34.30
2018-07-13T17:38:19.503Z,33.60
2018-07-13T17:40:47.793Z,33.50
2018-07-13T17:43:16.124Z,32.90
2018-07-13T17:45:44.418Z,32.40
2018-07-13T17:48:12.726Z,32.20
2018-07-13T17:50:41.023Z,32.60
2018-07-13T17:53:09.342Z,33.10
2018-07-13T17:55:36.857Z,33.10
2018-07-13T17:58:05.166Z,34.50
2018-07-13T18:00:33.545Z,34.50
2018-07-13T18:03:01.045Z,34.40
2018-07-13T18:05:29.335Z,34.90
2018-07-13T18:07:57.648Z,35.10
2018-07-13T18:10:25.949Z,35.10
2018-07-13T18:12:54.533Z,34.90
2018-07-13T18:15:21.813Z,34.90
2018-07-13T18:17:50.126Z,33.70
2018-07-13T18:20:17.658Z,33.70
2018-07-13T18:22:45.962Z,33.10
2018-07-13T18:25:14.280Z,33.00
2018-07-13T18:27:42.574Z,32.60
2018-07-13T18:30:10.908Z,32.30
2018-07-13T18:32:39.198Z,31.60
2018-07-13T18:35:07.507Z,30.70
2018-07-13T18:37:35.804Z,29.60
2018-07-13T18:40:04.118Z,28.70
2018-07-13T18:42:32.442Z,27.90
2018-07-13T18:45:00.010Z,27.90
2018-07-13T18:47:28.311Z,26.70
2018-07-13T18:49:56.638Z,26.20
2018-07-13T18:52:24.949Z,25.70
2018-07-13T18:54:53.262Z,25.30
2018-07-13T18:57:21.560Z,24.90
2018-07-13T18:59:49.876Z,24.50
2018-07-13T19:02:18.158Z,24.10
2018-07-13T19:04:46.466Z,23.80
2018-07-13T19:07:14.824Z,23.60
2018-07-13T19:09:43.100Z,23.40
2018-07-13T19:12:11.386Z,23.20
2018-07-13T19:14:38.922Z,23.20
2018-07-13T19:17:07.210Z,22.90
2018-07-13T19:19:35.530Z,22.80
2018-07-13T19:22:03.822Z,22.60
2018-07-13T19:24:31.368Z,22.60
2018-07-13T19:26:59.654Z,22.40
2018-07-13T19:29:27.970Z,22.10
2018-07-13T19:31:56.270Z,22.00
2018-07-13T19:34:24.583Z,21.80
2018-07-13T19:36:52.878Z,21.60
2018-07-13T19:39:21.194Z,21.40
2018-07-13T19:41:49.478Z,21.30
2018-07-13T19:44:17.794Z,21.10
2018-07-13T19:46:46.090Z,21.00
2018-07-13T19:49:14.404Z,20.90
2018-07-13T19:51:42.730Z,20.70
2018-07-13T19:54:11.031Z,20.60
2018-07-13T19:56:39.322Z,20.40
2018-07-13T19:59:07.628Z,20.20
2018-07-13T20:01:35.914Z,20.10
2018-07-13T20:04:03.442Z,20.10
2018-07-13T20:06:31.754Z,20.00
2018-07-13T20:08:59.294Z,19.90
2018-07-13T20:11:27.612Z,19.90
2018-07-13T20:13:55.905Z,19.90
2018-07-13T20:16:24.220Z,19.90
2018-07-13T20:18:52.543Z,19.90
2018-07-13T20:21:20.862Z,19.90
2018-07-13T20:23:49.158Z,19.80
2018-07-13T20:26:17.475Z,19.70
2018-07-13T20:28:45.762Z,19.70
2018-07-13T20:31:14.077Z,19.70
2018-07-13T20:33:42.370Z,19.70
2018-07-13T20:36:10.686Z,19.70
2018-07-13T20:38:38.978Z,19.70
2018-07-13T20:41:07.294Z,19.70
2018-07-13T20:43:35.621Z,19.70
2018-07-13T20:46:03.921Z,19.60
2018-07-13T20:48:32.218Z,19.60
2018-07-13T20:51:00.531Z,19.60
2018-07-13T20:53:28.826Z,19.60
2018-07-13T20:55:57.144Z,19.60
2018-07-13T20:58:25.434Z,19.60
2018-07-13T21:00:53.748Z,19.60
2018-07-13T21:03:22.046Z,19.60
2018-07-13T21:05:50.355Z,19.60
2018-07-13T21:08:18.650Z,19.60
2018-07-13T21:10:46.976Z,19.60
2018-07-13T21:13:15.288Z,19.50
2018-07-13T21:15:43.609Z,19.50
2018-07-13T21:18:11.902Z,19.40
2018-07-13T21:20:40.223Z,19.30
2018-07-13T21:23:08.521Z,19.20
2018-07-13T21:25:36.841Z,19.20
2018-07-13T21:28:05.309Z,19.20
2018-07-13T21:30:33.618Z,19.20
2018-07-13T21:33:01.932Z,19.20
2018-07-13T21:35:30.225Z,19.20
2018-07-13T21:37:58.536Z,19.20
2018-07-13T21:40:26.830Z,19.20
2018-07-13T21:42:55.146Z,19.20
2018-07-13T21:45:23.546Z,19.20
2018-07-13T21:47:51.770Z,19.10
2018-07-13T21:50:20.071Z,19.10
2018-07-13T21:52:48.393Z,19.10
2018-07-13T21:55:16.698Z,19.10
2018-07-13T21:57:45.027Z,19.10
2018-07-13T22:00:13.321Z,19.10
2018-07-13T22:02:41.635Z,19.00
2018-07-13T22:05:09.935Z,19.10
2018-07-13T22:07:38.251Z,19.00
2018-07-13T22:10:06.543Z,19.00
2018-07-13T22:12:34.862Z,19.00
2018-07-13T22:15:03.162Z,19.00
2018-07-13T22:17:31.483Z,19.00
2018-07-13T22:19:59.781Z,19.00
2018-07-13T22:22:28.102Z,19.00
2018-07-13T22:24:56.390Z,18.90
2018-07-13T22:27:24.711Z,18.90
2018-07-13T22:29:53.012Z,18.90
2018-07-13T22:32:21.334Z,18.80
2018-07-13T22:34:49.638Z,18.80
2018-07-13T22:37:17.960Z,18.70
2018-07-13T22:39:46.258Z,18.70
2018-07-13T22:42:14.578Z,18.60
2018-07-13T22:44:42.878Z,18.60
2018-07-13T22:47:11.198Z,18.50
2018-07-13T22:49:39.495Z,18.50
2018-07-13T22:52:07.810Z,18.40
2018-07-13T22:54:36.103Z,18.40
2018-07-13T22:57:04.419Z,18.40
2018-07-13T22:59:32.716Z,18.30
2018-07-13T23:02:01.055Z,18.30
2018-07-13T23:04:29.345Z,18.20
2018-07-13T23:06:57.662Z,18.10
2018-07-13T23:09:25.959Z,18.10
2018-07-13T23:11:54.274Z,18.00
2018-07-13T23:14:22.569Z,18.00
2018-07-13T23:16:50.904Z,17.90
2018-07-13T23:19:19.206Z,17.90
2018-07-13T23:21:47.506Z,17.80
2018-07-13T23:24:15.831Z,17.70
2018-07-13T23:26:44.122Z,17.70
2018-07-13T23:29:12.447Z,17.60
2018-07-13T23:31:40.746Z,17.50
2018-07-13T23:34:09.062Z,17.40
2018-07-13T23:36:37.362Z,17.50
2018-07-13T23:39:04.914Z,17.40
2018-07-13T23:41:33.215Z,17.30
2018-07-13T23:44:01.555Z,17.30
2018-07-13T23:46:29.857Z,17.30
2018-07-13T23:48:58.175Z,17.20
2018-07-13T23:51:26.482Z,17.20
2018-07-13T23:53:54.797Z,17.10
2018-07-13T23:56:23.097Z,17.10
2018-07-13T23:58:51.460Z,17.10
